createdAt,value
2017-11-27T00:00:39.184Z,89.37
2017-11-27T00:01:41.831Z,89.82
2017-11-27T00:02:44.462Z,90.30
2017-11-27T00:03:47.072Z,90.15
2017-11-27T00:04:50.109Z,89.38
2017-11-27T00:05:52.741Z,89.55
2017-11-27T00:06:55.403Z,89.99
2017-11-27T00:07:58.074Z,89.40
2017-11-27T00:09:00.687Z,89.31
2017-11-27T00:10:03.311Z,89.29
2017-11-27T00:11:06.294Z,89.22
2017-11-27T00:12:08.897Z,90.07
2017-11-27T00:13:11.515Z,88.90
2017-11-27T00:14:14.200Z,87.76
2017-11-27T00:15:16.861Z,88.38
2017-11-27T00:16:19.449Z,88.37
2017-11-27T00:17:22.572Z,88.13
2017-11-27T00:18:25.161Z,88.25
2017-11-27T00:19:27.796Z,88.57
2017-11-27T00:20:30.407Z,88.13
2017-11-27T00:21:33.253Z,88.35
2017-11-27T00:22:35.996Z,88.26
2017-11-27T00:23:39.178Z,88.12
2017-11-27T00:24:41.817Z,88.55
2017-11-27T00:25:44.354Z,88.41
2017-11-27T00:26:47.184Z,88.06
2017-11-27T00:27:49.755Z,87.49
2017-11-27T00:28:52.328Z,87.54
2017-11-27T00:29:55.348Z,87.63
2017-11-27T00:30:57.970Z,86.96
2017-11-27T00:32:00.508Z,87.45
2017-11-27T00:33:03.159Z,88.00
2017-11-27T00:34:05.719Z,88.33
2017-11-27T00:35:08.404Z,88.57
2017-11-27T00:36:11.370Z,88.55
2017-11-27T00:37:13.962Z,88.67
2017-11-27T00:38:16.592Z,87.88
2017-11-27T00:39:19.211Z,87.70
2017-11-27T00:40:21.846Z,86.90
2017-11-27T00:41:24.504Z,87.51
2017-11-27T00:42:27.549Z,87.90
2017-11-27T00:43:30.223Z,87.49
2017-11-27T00:44:32.839Z,88.46
2017-11-27T00:45:35.475Z,87.77
2017-11-27T00:46:38.068Z,87.82
2017-11-27T00:47:40.676Z,87.89
2017-11-27T00:48:43.787Z,87.28
2017-11-27T00:49:46.446Z,87.22
2017-11-27T00:50:49.066Z,88.16
2017-11-27T00:51:51.657Z,87.14
2017-11-27T00:52:54.255Z,87.52
2017-11-27T00:53:56.950Z,86.53
2017-11-27T00:55:00.097Z,86.88
2017-11-27T00:56:02.889Z,87.40
2017-11-27T00:57:05.712Z,87.63
2017-11-27T00:58:08.480Z,87.89
2017-11-27T00:59:11.186Z,86.75
2017-11-27T01:00:13.943Z,87.24
2017-11-27T01:01:17.299Z,87.32
2017-11-27T01:02:20.023Z,87.50
2017-11-27T01:03:22.647Z,87.00
2017-11-27T01:04:25.247Z,87.40
2017-11-27T01:05:27.906Z,86.91
2017-11-27T01:06:30.586Z,86.59
2017-11-27T01:07:33.657Z,86.82
2017-11-27T01:08:36.279Z,86.03
2017-11-27T01:09:38.891Z,86.51
2017-11-27T01:10:41.523Z,86.29
2017-11-27T01:11:44.234Z,86.75
2017-11-27T01:12:46.860Z,86.93
2017-11-27T01:13:49.888Z,87.19
2017-11-27T01:14:52.490Z,87.01
2017-11-27T01:15:55.119Z,86.98
2017-11-27T01:16:57.729Z,87.01
2017-11-27T01:18:00.341Z,87.15
2017-11-27T01:19:02.949Z,87.03
2017-11-27T01:20:05.858Z,87.84
2017-11-27T01:21:08.493Z,87.52
2017-11-27T01:22:11.163Z,87.42
2017-11-27T01:23:13.780Z,87.16
2017-11-27T01:24:17.333Z,87.37
2017-11-27T01:25:19.961Z,87.18
2017-11-27T01:26:22.916Z,86.94
2017-11-27T01:27:25.577Z,86.94
2017-11-27T01:28:28.307Z,86.92
2017-11-27T01:29:30.900Z,87.31
2017-11-27T01:30:33.586Z,87.11
2017-11-27T01:31:36.212Z,87.95
2017-11-27T01:32:39.348Z,87.96
2017-11-27T01:33:41.959Z,88.05
2017-11-27T01:34:44.563Z,88.97
2017-11-27T01:35:47.304Z,88.97
2017-11-27T01:36:49.900Z,88.68
2017-11-27T01:37:52.515Z,89.12
2017-11-27T01:38:55.604Z,87.51
2017-11-27T01:39:58.201Z,88.33
2017-11-27T01:41:00.890Z,88.25
2017-11-27T01:42:03.497Z,87.77
2017-11-27T01:43:06.176Z,88.43
2017-11-27T01:44:08.814Z,89.57
2017-11-27T01:45:11.739Z,88.76
2017-11-27T01:46:14.361Z,89.47
2017-11-27T01:47:16.969Z,90.31
2017-11-27T01:48:19.601Z,89.83
2017-11-27T01:49:22.242Z,88.97
2017-11-27T01:50:24.859Z,89.03
2017-11-27T01:51:27.796Z,88.70
2017-11-27T01:52:30.419Z,88.58
2017-11-27T01:53:33.090Z,88.21
2017-11-27T01:54:35.702Z,88.20
2017-11-27T01:55:38.354Z,88.95
2017-11-27T01:56:40.987Z,88.16
2017-11-27T01:57:43.987Z,88.25
2017-11-27T01:58:46.622Z,88.11
2017-11-27T01:59:49.217Z,88.50
2017-11-27T02:00:51.830Z,89.12
2017-11-27T02:01:54.425Z,89.03
2017-11-27T02:02:57.052Z,88.25
2017-11-27T02:03:59.995Z,89.33
2017-11-27T02:05:02.687Z,89.26
2017-11-27T02:06:05.312Z,88.50
2017-11-27T02:07:07.931Z,88.42
2017-11-27T02:08:10.613Z,88.56
2017-11-27T02:09:13.285Z,87.75
2017-11-27T02:10:16.263Z,87.95
2017-11-27T02:11:18.883Z,87.11
2017-11-27T02:12:21.524Z,86.92
2017-11-27T02:13:24.133Z,87.34
2017-11-27T02:14:26.780Z,87.75
2017-11-27T02:15:29.399Z,87.03
2017-11-27T02:16:32.414Z,87.16
2017-11-27T02:17:34.985Z,87.74
2017-11-27T02:18:37.736Z,87.71
2017-11-27T02:19:40.373Z,88.28
2017-11-27T02:20:43.035Z,86.82
2017-11-27T02:21:45.644Z,86.85
2017-11-27T02:22:49.138Z,87.38
2017-11-27T02:23:51.816Z,87.24
2017-11-27T02:24:54.491Z,87.39
2017-11-27T02:25:57.149Z,87.51
2017-11-27T02:26:59.789Z,87.81
2017-11-27T02:28:02.410Z,88.48
2017-11-27T02:29:05.455Z,88.90
2017-11-27T02:30:08.067Z,88.94
2017-11-27T02:31:10.673Z,89.10
2017-11-27T02:32:13.268Z,88.60
2017-11-27T02:33:15.854Z,88.37
2017-11-27T02:34:18.482Z,88.47
2017-11-27T02:35:21.474Z,88.23
2017-11-27T02:36:24.194Z,88.15
2017-11-27T02:37:26.790Z,88.36
2017-11-27T02:38:29.419Z,88.29
2017-11-27T02:39:31.992Z,88.34
2017-11-27T02:40:34.623Z,87.88
2017-11-27T02:41:37.701Z,88.24
2017-11-27T02:42:40.319Z,88.42
2017-11-27T02:43:42.885Z,88.21
2017-11-27T02:44:45.507Z,88.62
2017-11-27T02:45:48.079Z,88.91
2017-11-27T02:46:50.685Z,88.51
2017-11-27T02:47:53.714Z,88.11
2017-11-27T02:48:56.344Z,87.87
2017-11-27T02:49:58.965Z,87.35
2017-11-27T02:51:01.586Z,88.14
2017-11-27T02:52:04.214Z,88.29
2017-11-27T02:53:06.799Z,88.84
2017-11-27T02:54:09.923Z,88.44
2017-11-27T02:55:12.578Z,88.99
2017-11-27T02:56:15.196Z,88.23
2017-11-27T02:57:17.834Z,87.95
2017-11-27T02:58:20.489Z,87.84
2017-11-27T02:59:23.118Z,88.64
2017-11-27T03:00:26.136Z,88.02
2017-11-27T03:01:28.783Z,88.21
2017-11-27T03:02:31.384Z,89.18
2017-11-27T03:03:34.027Z,89.06
2017-11-27T03:04:36.630Z,89.01
2017-11-27T03:05:39.240Z,89.62
2017-11-27T03:06:42.333Z,89.49
2017-11-27T03:07:44.950Z,88.88
2017-11-27T03:08:47.533Z,88.78
2017-11-27T03:09:50.203Z,89.04
2017-11-27T03:10:52.755Z,89.21
2017-11-27T03:11:55.397Z,89.04
2017-11-27T03:12:58.367Z,89.32
2017-11-27T03:14:00.996Z,90.06
2017-11-27T03:15:03.487Z,90.30
2017-11-27T03:16:06.061Z,89.60
2017-11-27T03:17:08.681Z,90.05
2017-11-27T03:18:11.282Z,90.64
2017-11-27T03:19:14.362Z,90.86
2017-11-27T03:20:17.021Z,91.22
2017-11-27T03:21:19.589Z,91.14
2017-11-27T03:22:22.193Z,92.08
2017-11-27T03:23:24.768Z,92.92
2017-11-27T03:24:27.377Z,93.25
2017-11-27T03:25:30.366Z,93.61
2017-11-27T03:26:32.989Z,93.70
2017-11-27T03:27:35.601Z,93.55
2017-11-27T03:28:38.234Z,94.00
2017-11-27T03:29:40.940Z,93.77
2017-11-27T03:30:43.585Z,93.91
2017-11-27T03:31:46.720Z,93.76
2017-11-27T03:32:49.483Z,93.82
2017-11-27T03:33:52.088Z,93.80
2017-11-27T03:34:54.869Z,93.37
2017-11-27T03:35:57.582Z,93.74
2017-11-27T03:37:00.251Z,93.91
2017-11-27T03:38:03.313Z,94.11
2017-11-27T03:39:05.958Z,93.95
2017-11-27T03:40:08.564Z,93.84
2017-11-27T03:41:11.231Z,94.02
2017-11-27T03:42:14.047Z,93.97
2017-11-27T03:43:16.657Z,93.89
2017-11-27T03:44:19.624Z,93.48
2017-11-27T03:45:22.244Z,93.65
2017-11-27T03:46:24.890Z,93.45
2017-11-27T03:47:27.475Z,93.35
2017-11-27T03:48:30.103Z,93.26
2017-11-27T03:49:32.703Z,93.56
2017-11-27T03:50:35.643Z,93.77
2017-11-27T03:51:38.259Z,93.63
2017-11-27T03:52:40.859Z,93.79
2017-11-27T03:53:43.480Z,93.50
2017-11-27T03:54:46.062Z,92.75
2017-11-27T03:55:48.692Z,92.55
2017-11-27T03:56:51.278Z,92.90
2017-11-27T03:57:53.889Z,92.77
2017-11-27T03:58:56.485Z,92.68
2017-11-27T03:59:59.111Z,92.68
2017-11-27T04:01:01.789Z,92.32
2017-11-27T04:02:04.424Z,92.80
2017-11-27T04:03:07.532Z,92.64
2017-11-27T04:04:12.866Z,92.56
2017-11-27T04:05:15.502Z,92.43
2017-11-27T04:06:18.105Z,92.42
2017-11-27T04:07:20.696Z,92.34
2017-11-27T04:08:23.288Z,92.41
2017-11-27T04:09:26.322Z,92.61
2017-11-27T04:10:28.890Z,92.39
2017-11-27T04:11:31.478Z,92.03
2017-11-27T04:12:34.047Z,91.84
2017-11-27T04:13:36.650Z,92.25
2017-11-27T04:14:39.284Z,92.16
2017-11-27T04:15:42.365Z,91.97
2017-11-27T04:16:45.008Z,91.77
2017-11-27T04:17:47.534Z,91.78
2017-11-27T04:18:50.129Z,91.61
2017-11-27T04:19:53.686Z,92.19
2017-11-27T04:20:56.332Z,91.57
2017-11-27T04:21:58.943Z,91.60
2017-11-27T04:23:01.552Z,91.79
2017-11-27T04:24:04.073Z,91.91
2017-11-27T04:25:06.578Z,90.99
2017-11-27T04:26:09.160Z,90.60
2017-11-27T04:27:11.787Z,91.22
2017-11-27T04:28:14.423Z,90.11
2017-11-27T04:29:17.013Z,90.25
2017-11-27T04:30:19.626Z,90.11
2017-11-27T04:31:22.236Z,90.73
2017-11-27T04:32:25.304Z,90.43
2017-11-27T04:33:28.000Z,90.82
2017-11-27T04:34:30.681Z,90.36
2017-11-27T04:35:33.251Z,89.75
2017-11-27T04:36:35.845Z,89.58
2017-11-27T04:37:38.463Z,90.42
2017-11-27T04:38:41.499Z,90.64
2017-11-27T04:39:44.145Z,90.53
2017-11-27T04:40:46.764Z,89.69
2017-11-27T04:41:49.378Z,90.16
2017-11-27T04:42:52.064Z,90.34
2017-11-27T04:43:54.762Z,89.84
2017-11-27T04:44:58.215Z,90.29
2017-11-27T04:46:00.869Z,90.24
2017-11-27T04:47:03.546Z,90.83
2017-11-27T04:48:06.143Z,90.80
2017-11-27T04:49:08.776Z,90.25
2017-11-27T04:50:11.837Z,90.12
2017-11-27T04:51:14.425Z,90.45
2017-11-27T04:52:17.018Z,90.42
2017-11-27T04:53:19.649Z,90.12
2017-11-27T04:54:22.267Z,90.15
2017-11-27T04:55:24.880Z,89.84
2017-11-27T04:56:27.825Z,89.92
2017-11-27T04:57:30.466Z,90.21
2017-11-27T04:58:33.084Z,89.85
2017-11-27T04:59:35.622Z,90.38
2017-11-27T05:00:38.161Z,89.93
2017-11-27T05:01:40.663Z,90.05
2017-11-27T05:02:43.660Z,90.08
2017-11-27T05:03:46.173Z,90.03
2017-11-27T05:04:48.747Z,90.02
2017-11-27T05:05:51.366Z,90.04
2017-11-27T05:06:53.981Z,89.96
2017-11-27T05:07:56.541Z,89.74
2017-11-27T05:08:59.154Z,89.97
2017-11-27T05:10:01.736Z,90.13
2017-11-27T05:11:04.344Z,90.46
2017-11-27T05:12:07.022Z,90.23
2017-11-27T05:13:09.792Z,90.52
2017-11-27T05:14:12.772Z,90.14
2017-11-27T05:15:15.381Z,90.33
2017-11-27T05:16:17.976Z,90.42
2017-11-27T05:17:20.603Z,90.04
2017-11-27T05:18:23.234Z,90.15
2017-11-27T05:19:25.866Z,89.61
2017-11-27T05:20:28.838Z,89.75
2017-11-27T05:21:31.537Z,89.89
2017-11-27T05:22:34.130Z,89.75
2017-11-27T05:23:36.735Z,90.18
2017-11-27T05:24:39.562Z,90.18
2017-11-27T05:25:42.358Z,90.34
2017-11-27T05:26:45.421Z,90.49
2017-11-27T05:27:48.018Z,90.78
2017-11-27T05:28:50.683Z,90.80
2017-11-27T05:29:53.363Z,90.42
2017-11-27T05:30:56.028Z,90.64
2017-11-27T05:31:58.676Z,91.05
2017-11-27T05:33:01.750Z,90.48
2017-11-27T05:34:04.461Z,90.00
2017-11-27T05:35:07.093Z,90.03
2017-11-27T05:36:09.697Z,90.19
2017-11-27T05:37:12.438Z,90.38
2017-11-27T05:38:15.084Z,90.64
2017-11-27T05:39:18.172Z,90.09
2017-11-27T05:40:20.741Z,89.98
2017-11-27T05:41:23.379Z,90.31
2017-11-27T05:42:26.001Z,90.00
2017-11-27T05:43:28.644Z,90.01
2017-11-27T05:44:31.261Z,89.42
2017-11-27T05:45:34.302Z,89.65
2017-11-27T05:46:36.868Z,89.99
2017-11-27T05:47:39.441Z,89.74
2017-11-27T05:48:42.098Z,89.69
2017-11-27T05:49:44.684Z,89.64
2017-11-27T05:50:47.303Z,89.82
2017-11-27T05:51:50.431Z,90.00
2017-11-27T05:52:53.056Z,90.19
2017-11-27T05:53:55.663Z,90.23
2017-11-27T05:54:58.387Z,90.31
2017-11-27T05:56:00.960Z,90.17
2017-11-27T05:57:03.719Z,90.35
2017-11-27T05:58:06.916Z,90.28
2017-11-27T05:59:09.890Z,90.53
2017-11-27T06:00:12.512Z,90.31
2017-11-27T06:01:15.192Z,90.09
2017-11-27T06:02:17.854Z,90.01
2017-11-27T06:03:20.489Z,90.28
2017-11-27T06:04:23.491Z,90.21
2017-11-27T06:05:26.117Z,90.20
2017-11-27T06:06:28.749Z,90.38
2017-11-27T06:07:31.376Z,90.17
2017-11-27T06:08:33.978Z,90.32
2017-11-27T06:09:36.596Z,90.39
2017-11-27T06:10:39.693Z,90.23
2017-11-27T06:11:42.329Z,90.34
2017-11-27T06:12:44.954Z,89.91
2017-11-27T06:13:47.576Z,89.89
2017-11-27T06:14:50.265Z,89.92
2017-11-27T06:15:52.887Z,89.69
2017-11-27T06:16:55.880Z,89.45
2017-11-27T06:17:58.503Z,89.28
2017-11-27T06:19:01.128Z,89.36
2017-11-27T06:20:03.781Z,89.42
2017-11-27T06:21:06.455Z,89.85
2017-11-27T06:22:09.466Z,89.84
2017-11-27T06:23:12.913Z,89.22
2017-11-27T06:24:15.863Z,89.35
2017-11-27T06:25:18.914Z,89.38
2017-11-27T06:26:21.600Z,89.63
2017-11-27T06:27:24.296Z,89.38
2017-11-27T06:28:26.904Z,89.20
2017-11-27T06:29:30.019Z,89.21
2017-11-27T06:30:32.684Z,89.39
2017-11-27T06:31:35.414Z,89.48
2017-11-27T06:32:37.969Z,89.00
2017-11-27T06:33:40.581Z,89.34
2017-11-27T06:34:43.137Z,89.67
2017-11-27T06:35:46.175Z,89.44
2017-11-27T06:36:48.792Z,89.36
2017-11-27T06:37:51.416Z,89.04
2017-11-27T06:38:54.164Z,89.23
2017-11-27T06:39:56.820Z,89.45
2017-11-27T06:40:59.495Z,89.49
2017-11-27T06:42:02.342Z,89.16
2017-11-27T06:43:04.815Z,88.94
2017-11-27T06:44:07.302Z,89.16
2017-11-27T06:45:09.846Z,89.14
2017-11-27T06:46:13.126Z,88.90
2017-11-27T06:47:15.799Z,88.62
2017-11-27T06:48:18.923Z,88.54
2017-11-27T06:49:21.666Z,88.81
2017-11-27T06:50:24.312Z,88.92
2017-11-27T06:51:26.984Z,88.71
2017-11-27T06:52:29.598Z,88.26
2017-11-27T06:53:32.229Z,88.17
2017-11-27T06:54:35.315Z,88.41
2017-11-27T06:55:37.945Z,88.17
2017-11-27T06:56:40.571Z,88.30
2017-11-27T06:57:43.275Z,88.27
2017-11-27T06:58:45.905Z,88.41
2017-11-27T06:59:48.602Z,88.70
2017-11-27T07:00:51.561Z,88.51
2017-11-27T07:01:54.194Z,88.24
2017-11-27T07:02:56.801Z,88.33
2017-11-27T07:03:59.471Z,88.48
2017-11-27T07:05:02.135Z,88.58
2017-11-27T07:06:04.886Z,88.49
2017-11-27T07:07:07.628Z,88.53
2017-11-27T07:08:10.284Z,88.36
2017-11-27T07:09:12.907Z,88.41
2017-11-27T07:10:15.533Z,88.29
2017-11-27T07:11:18.155Z,88.32
2017-11-27T07:12:20.909Z,88.11
2017-11-27T07:13:23.607Z,88.44
2017-11-27T07:14:26.314Z,88.33
2017-11-27T07:15:30.048Z,88.13
2017-11-27T07:16:32.709Z,88.07
2017-11-27T07:17:35.341Z,88.08
2017-11-27T07:18:38.457Z,88.12
2017-11-27T07:19:41.067Z,88.20
2017-11-27T07:20:43.736Z,87.96
2017-11-27T07:21:46.385Z,88.17
2017-11-27T07:22:48.970Z,88.14
2017-11-27T07:23:51.626Z,88.17
2017-11-27T07:24:54.694Z,88.38
2017-11-27T07:25:57.256Z,88.36
2017-11-27T07:26:59.883Z,87.86
2017-11-27T07:28:02.548Z,87.95
2017-11-27T07:29:05.187Z,88.07
2017-11-27T07:30:07.884Z,88.23
2017-11-27T07:31:11.245Z,88.36
2017-11-27T07:32:13.902Z,88.23
2017-11-27T07:33:16.526Z,88.17
2017-11-27T07:34:19.159Z,88.01
2017-11-27T07:35:21.796Z,88.02
2017-11-27T07:36:24.751Z,88.24
2017-11-27T07:37:31.750Z,88.37
2017-11-27T07:40:42.286Z,88.26
2017-11-27T07:41:44.917Z,88.64
2017-11-27T07:42:47.533Z,88.63
2017-11-27T07:43:50.160Z,88.83
2017-11-27T07:44:52.870Z,89.22
2017-11-27T07:45:55.518Z,89.24
2017-11-27T07:46:58.212Z,89.28
2017-11-27T07:48:00.830Z,89.48
2017-11-27T07:49:03.844Z,89.62
2017-11-27T07:50:06.531Z,89.78
2017-11-27T07:51:09.168Z,89.94
2017-11-27T07:52:11.811Z,89.76
2017-11-27T07:53:14.552Z,90.29
2017-11-27T07:54:17.315Z,90.70
2017-11-27T07:55:20.492Z,90.64
2017-11-27T07:56:23.137Z,90.81
2017-11-27T07:57:25.771Z,90.92
2017-11-27T07:58:28.479Z,90.60
2017-11-27T07:59:31.427Z,90.45
2017-11-27T08:00:34.069Z,90.78
2017-11-27T08:01:36.969Z,90.52
2017-11-27T08:02:39.605Z,90.59
2017-11-27T08:03:42.211Z,90.82
2017-11-27T08:04:44.854Z,90.70
2017-11-27T08:05:47.467Z,91.24
2017-11-27T08:06:50.150Z,91.18
2017-11-27T08:07:53.261Z,91.40
2017-11-27T08:08:55.909Z,91.44
2017-11-27T08:09:59.058Z,91.46
2017-11-27T08:11:01.758Z,91.31
2017-11-27T08:12:04.469Z,91.32
2017-11-27T08:13:07.816Z,91.31
2017-11-27T08:14:10.949Z,91.62
2017-11-27T08:15:13.654Z,91.56
2017-11-27T08:16:16.251Z,91.26
2017-11-27T08:17:18.865Z,91.51
2017-11-27T08:18:21.575Z,91.37
2017-11-27T08:19:24.169Z,91.88
2017-11-27T08:20:27.172Z,91.76
2017-11-27T08:21:30.052Z,91.75
2017-11-27T08:22:32.717Z,91.76
2017-11-27T08:23:35.322Z,91.76
2017-11-27T08:24:38.539Z,91.43
2017-11-27T08:25:41.192Z,91.11
2017-11-27T08:26:44.180Z,91.90
2017-11-27T08:27:46.863Z,91.12
2017-11-27T08:28:49.474Z,91.64
2017-11-27T08:29:52.060Z,91.77
2017-11-27T08:30:54.708Z,91.88
2017-11-27T08:31:57.526Z,91.73
2017-11-27T08:33:00.606Z,92.47
2017-11-27T08:34:03.258Z,92.76
2017-11-27T08:35:05.913Z,92.46
2017-11-27T08:36:08.523Z,92.18
2017-11-27T08:37:11.188Z,92.12
2017-11-27T08:38:13.848Z,92.43
2017-11-27T08:39:16.935Z,91.72
2017-11-27T08:40:19.535Z,92.31
2017-11-27T08:41:22.205Z,91.94
2017-11-27T08:42:24.811Z,91.90
2017-11-27T08:43:27.432Z,92.02
2017-11-27T08:44:30.045Z,92.14
2017-11-27T08:45:33.020Z,92.04
2017-11-27T08:46:35.681Z,92.27
2017-11-27T08:47:38.349Z,92.18
2017-11-27T08:48:40.935Z,92.09
2017-11-27T08:49:43.571Z,91.99
2017-11-27T08:50:46.166Z,91.95
2017-11-27T08:51:49.259Z,91.83
2017-11-27T08:52:51.886Z,92.14
2017-11-27T08:53:54.571Z,92.06
2017-11-27T08:54:57.244Z,92.58
2017-11-27T08:55:59.996Z,92.48
2017-11-27T08:57:02.709Z,92.40
2017-11-27T08:58:05.771Z,92.53
2017-11-27T08:59:08.490Z,92.69
2017-11-27T09:00:11.281Z,92.37
2017-11-27T09:01:13.961Z,92.50
2017-11-27T09:02:16.601Z,92.55
2017-11-27T09:03:19.325Z,91.97
2017-11-27T09:04:22.393Z,92.30
2017-11-27T09:05:25.010Z,92.53
2017-11-27T09:06:27.791Z,92.47
2017-11-27T09:07:30.437Z,91.47
2017-11-27T09:08:33.081Z,91.47
2017-11-27T09:09:35.731Z,91.77
2017-11-27T09:10:38.915Z,92.12
2017-11-27T09:11:41.538Z,91.66
2017-11-27T09:12:44.301Z,92.10
2017-11-27T09:13:46.927Z,92.37
2017-11-27T09:14:49.544Z,91.53
2017-11-27T09:15:52.164Z,92.42
2017-11-27T09:16:55.185Z,92.68
2017-11-27T09:17:57.858Z,91.89
2017-11-27T09:19:00.482Z,92.02
2017-11-27T09:20:03.166Z,92.02
2017-11-27T09:21:05.792Z,92.01
2017-11-27T09:22:08.408Z,91.94
2017-11-27T09:23:11.334Z,92.09
2017-11-27T09:24:13.992Z,91.65
2017-11-27T09:25:16.579Z,91.84
2017-11-27T09:26:19.236Z,91.65
2017-11-27T09:27:21.981Z,91.61
2017-11-27T09:28:24.691Z,91.47
2017-11-27T09:29:27.729Z,91.14
2017-11-27T09:30:30.420Z,92.03
2017-11-27T09:31:33.050Z,91.70
2017-11-27T09:32:35.580Z,91.95
2017-11-27T09:33:38.086Z,92.12
2017-11-27T09:34:40.623Z,91.88
2017-11-27T09:35:43.643Z,92.27
2017-11-27T09:36:46.231Z,92.21
2017-11-27T09:37:48.816Z,92.63
2017-11-27T09:38:51.453Z,92.24
2017-11-27T09:39:53.986Z,92.43
2017-11-27T09:40:56.543Z,92.25
2017-11-27T09:41:59.531Z,91.39
2017-11-27T09:43:02.291Z,92.08
2017-11-27T09:44:04.914Z,92.24
2017-11-27T09:45:07.652Z,91.72
2017-11-27T09:46:10.366Z,92.55
2017-11-27T09:47:13.027Z,92.59
2017-11-27T09:48:16.067Z,92.86
2017-11-27T09:49:18.735Z,92.28
2017-11-27T09:50:21.358Z,92.47
2017-11-27T09:51:25.135Z,92.49
2017-11-27T09:52:27.862Z,92.25
2017-11-27T09:53:30.505Z,92.11
2017-11-27T09:54:33.210Z,91.83
2017-11-27T09:55:35.803Z,92.37
2017-11-27T09:56:38.511Z,92.36
2017-11-27T09:57:41.133Z,91.51
2017-11-27T09:58:43.735Z,91.74
2017-11-27T09:59:46.704Z,92.37
2017-11-27T10:00:49.330Z,92.46
2017-11-27T10:01:51.964Z,92.12
2017-11-27T10:02:54.679Z,91.85
2017-11-27T10:03:57.337Z,92.16
2017-11-27T10:05:00.414Z,92.05
2017-11-27T10:06:03.385Z,92.02
2017-11-27T10:07:06.088Z,91.86
2017-11-27T10:08:08.713Z,90.51
2017-11-27T10:09:11.524Z,90.99
2017-11-27T10:10:14.200Z,92.02
2017-11-27T10:11:16.838Z,92.22
2017-11-27T10:12:19.908Z,92.61
2017-11-27T10:13:22.527Z,92.43
2017-11-27T10:14:25.157Z,92.23
2017-11-27T10:15:28.656Z,92.51
2017-11-27T10:16:31.476Z,91.70
2017-11-27T10:17:34.557Z,92.03
2017-11-27T10:18:37.755Z,92.39
2017-11-27T10:19:40.416Z,92.15
2017-11-27T10:20:44.571Z,91.48
2017-11-27T10:21:47.275Z,91.81
2017-11-27T10:22:49.888Z,92.02
2017-11-27T10:23:53.047Z,91.68
2017-11-27T10:24:56.901Z,92.12
2017-11-27T10:26:00.486Z,92.68
2017-11-27T10:27:10.094Z,92.43
2017-11-27T10:28:13.773Z,91.46
2017-11-27T10:29:17.897Z,91.71
2017-11-27T10:30:20.608Z,92.30
2017-11-27T10:31:23.696Z,92.30
2017-11-27T10:32:26.657Z,92.26
2017-11-27T10:33:29.295Z,92.27
2017-11-27T10:34:31.910Z,91.90
2017-11-27T10:35:34.550Z,92.19
2017-11-27T10:36:37.867Z,91.78
2017-11-27T10:37:40.823Z,92.37
2017-11-27T10:38:43.471Z,92.50
2017-11-27T10:39:46.298Z,92.42
2017-11-27T10:40:49.812Z,92.22
2017-11-27T10:41:52.541Z,92.17
2017-11-27T10:42:55.189Z,91.98
2017-11-27T10:43:59.850Z,92.08
2017-11-27T10:45:03.137Z,92.30
2017-11-27T10:46:06.215Z,92.83
2017-11-27T10:47:08.927Z,92.45
2017-11-27T10:48:11.649Z,92.28
2017-11-27T10:49:15.465Z,91.76
2017-11-27T10:50:19.370Z,92.67
2017-11-27T10:51:22.104Z,91.85
2017-11-27T10:52:25.208Z,91.83
2017-11-27T10:53:27.944Z,92.66
2017-11-27T10:54:30.593Z,92.27
2017-11-27T10:55:33.668Z,92.76
2017-11-27T10:56:36.908Z,91.66
2017-11-27T10:57:39.562Z,92.40
2017-11-27T10:58:42.226Z,91.76
2017-11-27T10:59:44.875Z,92.28
2017-11-27T11:00:51.544Z,91.64
2017-11-27T11:01:55.377Z,92.29
2017-11-27T11:02:58.075Z,92.17
2017-11-27T11:04:00.726Z,92.90
2017-11-27T11:05:03.408Z,92.75
2017-11-27T11:06:06.072Z,92.44
2017-11-27T11:07:08.697Z,92.35
2017-11-27T11:08:11.319Z,91.87
2017-11-27T11:09:14.374Z,91.61
2017-11-27T11:10:16.990Z,92.09
2017-11-27T11:11:19.666Z,92.42
2017-11-27T11:12:22.295Z,91.92
2017-11-27T11:13:25.226Z,92.53
2017-11-27T11:14:28.916Z,92.82
2017-11-27T11:15:31.983Z,92.34
2017-11-27T11:16:34.617Z,91.67
2017-11-27T11:17:37.528Z,91.70
2017-11-27T11:18:40.174Z,92.61
2017-11-27T11:19:42.853Z,92.32
2017-11-27T11:20:45.439Z,92.59
2017-11-27T11:21:48.494Z,92.85
2017-11-27T11:22:51.139Z,91.43
2017-11-27T11:23:53.865Z,92.86
2017-11-27T11:24:56.685Z,92.81
2017-11-27T11:25:59.324Z,92.31
2017-11-27T11:27:02.027Z,92.41
2017-11-27T11:28:05.000Z,92.11
2017-11-27T11:29:07.670Z,91.55
2017-11-27T11:30:10.377Z,91.66
2017-11-27T11:31:13.070Z,92.74
2017-11-27T11:32:15.767Z,91.78
2017-11-27T11:33:18.368Z,91.16
2017-11-27T11:34:21.329Z,92.55
2017-11-27T11:35:23.989Z,92.04
2017-11-27T11:36:26.684Z,92.14
2017-11-27T11:37:29.341Z,91.96
2017-11-27T11:38:31.985Z,92.73
2017-11-27T11:39:34.842Z,91.61
2017-11-27T11:40:37.980Z,92.32
2017-11-27T11:41:40.666Z,92.21
2017-11-27T11:42:43.293Z,92.16
2017-11-27T11:43:46.680Z,92.63
2017-11-27T11:44:49.291Z,92.57
2017-11-27T11:45:51.949Z,92.66
2017-11-27T11:46:54.836Z,92.47
2017-11-27T11:47:57.540Z,92.41
2017-11-27T11:49:00.148Z,92.91
2017-11-27T11:50:02.800Z,91.99
2017-11-27T11:51:05.435Z,92.65
2017-11-27T11:52:08.670Z,92.21
2017-11-27T11:53:11.573Z,92.38
2017-11-27T11:54:14.266Z,92.47
2017-11-27T11:55:16.876Z,92.32
2017-11-27T11:56:19.532Z,92.59
2017-11-27T11:57:22.613Z,92.43
2017-11-27T11:58:25.288Z,92.18
2017-11-27T11:59:28.424Z,90.90
2017-11-27T12:00:31.021Z,92.59
2017-11-27T12:01:33.998Z,92.81
2017-11-27T12:02:36.638Z,92.21
2017-11-27T12:03:39.321Z,91.75
2017-11-27T12:04:41.930Z,92.42
2017-11-27T12:05:44.875Z,93.29
2017-11-27T12:06:47.527Z,92.69
2017-11-27T12:07:50.209Z,92.81
2017-11-27T12:08:52.809Z,92.80
2017-11-27T12:09:55.422Z,92.82
2017-11-27T12:10:58.103Z,93.26
2017-11-27T12:12:00.799Z,93.18
2017-11-27T12:13:03.450Z,91.90
2017-11-27T12:14:06.241Z,93.10
2017-11-27T12:15:10.339Z,92.29
2017-11-27T12:16:13.040Z,92.57
2017-11-27T12:17:16.086Z,92.16
2017-11-27T12:18:18.800Z,93.18
2017-11-27T12:19:21.713Z,91.67
2017-11-27T12:20:24.297Z,92.53
2017-11-27T12:21:27.002Z,92.53
2017-11-27T12:22:30.567Z,92.76
2017-11-27T12:23:33.709Z,92.54
2017-11-27T12:24:36.319Z,92.24
2017-11-27T12:25:39.183Z,92.81
2017-11-27T12:26:41.821Z,92.97
2017-11-27T12:27:44.443Z,92.76
2017-11-27T12:28:47.121Z,93.37
2017-11-27T12:29:50.223Z,93.11
2017-11-27T12:30:52.818Z,93.43
2017-11-27T12:31:55.540Z,93.24
2017-11-27T12:32:58.307Z,93.68
2017-11-27T12:34:01.945Z,92.55
2017-11-27T12:35:04.585Z,92.22
2017-11-27T12:36:07.202Z,92.49
2017-11-27T12:37:10.148Z,91.95
2017-11-27T12:38:13.336Z,92.46
2017-11-27T12:39:17.286Z,92.87
2017-11-27T12:40:21.133Z,92.52
2017-11-27T12:41:25.566Z,92.80
2017-11-27T12:42:28.629Z,92.91
2017-11-27T12:43:31.401Z,92.86
2017-11-27T12:44:34.736Z,92.76
2017-11-27T12:45:37.439Z,92.53
2017-11-27T12:46:40.351Z,92.90
2017-11-27T12:47:45.144Z,91.65
2017-11-27T12:48:47.785Z,93.34
2017-11-27T12:49:51.208Z,93.15
2017-11-27T12:50:54.108Z,92.92
2017-11-27T12:51:56.680Z,92.54
2017-11-27T12:53:00.524Z,93.28
2017-11-27T12:54:03.171Z,93.60
2017-11-27T12:55:05.853Z,93.66
2017-11-27T12:56:08.586Z,93.31
2017-11-27T12:57:12.120Z,93.07
2017-11-27T12:58:14.644Z,93.39
2017-11-27T12:59:17.753Z,93.61
2017-11-27T13:00:20.451Z,92.67
2017-11-27T13:01:23.407Z,93.29
2017-11-27T13:02:25.922Z,92.72
2017-11-27T13:03:28.496Z,93.28
2017-11-27T13:04:31.099Z,93.22
2017-11-27T13:05:34.042Z,93.49
2017-11-27T13:06:36.649Z,92.45
2017-11-27T13:07:40.456Z,92.51
2017-11-27T13:08:43.049Z,92.42
2017-11-27T13:09:45.858Z,93.07
2017-11-27T13:10:49.807Z,92.72
2017-11-27T13:11:53.792Z,92.84
2017-11-27T13:12:58.753Z,92.71
2017-11-27T13:14:01.358Z,92.60
2017-11-27T13:15:04.042Z,92.14
2017-11-27T13:16:07.263Z,92.67
2017-11-27T13:17:10.079Z,91.99
2017-11-27T13:18:13.036Z,93.34
2017-11-27T13:19:15.693Z,92.42
2017-11-27T13:20:18.328Z,92.79
2017-11-27T13:21:20.955Z,92.85
2017-11-27T13:22:23.628Z,92.89
2017-11-27T13:23:26.259Z,92.48
2017-11-27T13:24:29.328Z,92.62
2017-11-27T13:25:31.967Z,91.92
2017-11-27T13:26:34.823Z,92.88
2017-11-27T13:27:38.703Z,93.11
2017-11-27T13:28:41.361Z,93.41
2017-11-27T13:29:43.997Z,93.13
2017-11-27T13:30:46.879Z,93.17